Time;durP1;ratioP1;P1;durP2;ratioP2;P2;SDS_P1;SDS_P2;PMS_P1;PMS_P2;Temp;Humidity;BMP_temperature;BMP_pressure;BME280_temperature;BME280_humidity;BME280_pressure;Samples;Min_cycle;Max_cycle;Signal;HPM_P1;HPM_P2
2023/10/30 00:01:39;;;;;;;7.60;3.30;;;;;;;12.85;59.86;100499.89;105219;1254;59862;-56
2023/10/30 00:04:06;;;;;;;12.80;7.90;;;;;;;12.82;59.75;100501.68;105295;1259;64132;-54
2023/10/30 00:06:34;;;;;;;13.90;7.90;;;;;;;12.81;59.55;100498.27;104936;1254;61376;-55
2023/10/30 00:09:02;;;;;;;13.20;7.40;;;;;;;12.84;59.35;100494.27;104838;1260;62432;-55
2023/10/30 00:11:30;;;;;;;15.00;8.10;;;;;;;12.91;59.12;100497.07;104938;1259;59644;-56
2023/10/30 00:13:57;;;;;;;13.20;7.80;;;;;;;12.94;59.09;100493.23;104900;1254;61912;-55
2023/10/30 00:16:26;;;;;;;15.80;9.10;;;;;;;12.98;58.87;100491.55;105144;1260;64158;-55
2023/10/30 00:18:58;;;;;;;12.90;7.30;;;;;;;13.00;58.76;100491.36;105631;1258;61374;-57
2023/10/30 00:21:26;;;;;;;12.00;7.10;;;;;;;12.99;58.52;100490.88;105662;1254;62483;-55
2023/10/30 00:23:54;;;;;;;13.60;7.00;;;;;;;12.98;58.49;100488.67;105800;1258;59710;-55
2023/10/30 00:26:21;;;;;;;15.10;7.90;;;;;;;12.97;58.41;100490.69;105005;1259;60309;-57
2023/10/30 00:28:51;;;;;;;12.90;6.80;;;;;;;12.97;58.36;100489.80;105020;1260;64107;-58
2023/10/30 00:31:19;;;;;;;10.80;6.60;;;;;;;13.03;58.28;100490.36;104926;1257;61398;-58
2023/10/30 00:33:47;;;;;;;11.70;6.70;;;;;;;13.10;58.04;100492.87;104955;1258;63766;-57
2023/10/30 00:36:14;;;;;;;12.10;6.90;;;;;;;13.14;57.85;100491.67;104889;1256;59765;-58
2023/10/30 00:38:42;;;;;;;15.10;7.80;;;;;;;13.16;57.82;100496.25;105135;1260;59662;-58
2023/10/30 00:41:10;;;;;;;11.80;7.00;;;;;;;13.17;57.76;100494.33;105124;1257;62908;-57
2023/10/30 00:43:38;;;;;;;12.20;7.10;;;;;;;13.20;57.51;100493.44;105201;1257;61436;-56
2023/10/30 00:46:09;;;;;;;12.80;7.70;;;;;;;13.19;57.40;100492.23;105138;1257;62517;-57
2023/10/30 00:48:37;;;;;;;11.00;7.30;;;;;;;13.19;57.42;100493.36;105057;1258;59713;-55
2023/10/30 00:51:05;;;;;;;13.10;7.10;;;;;;;13.17;57.42;100486.84;105054;1257;61265;-58
2023/10/30 00:53:33;;;;;;;11.90;7.40;;;;;;;13.21;57.28;100487.86;104808;1263;64169;-57
2023/10/30 00:56:00;;;;;;;11.60;7.00;;;;;;;13.27;57.14;100491.59;105117;1257;61895;-59
2023/10/30 00:58:28;;;;;;;14.40;7.30;;;;;;;13.29;57.22;100486.98;105043;1259;63766;-58
2023/10/30 01:00:55;;;;;;;15.10;7.30;;;;;;;13.29;57.19;100481.41;104953;1257;60511;-58
2023/10/30 01:03:24;;;;;;;14.30;7.70;;;;;;;13.28;57.07;100482.66;106514;1260;59600;-57
2023/10/30 01:05:59;;;;;;;13.80;7.60;;;;;;;13.28;57.06;100479.35;105735;1260;64114;-59
2023/10/30 01:08:27;;;;;;;13.80;8.10;;;;;;;13.27;57.01;100478.34;105631;1257;61483;-58
2023/10/30 01:10:57;;;;;;;11.70;6.80;;;;;;;13.26;56.89;100482.14;105045;1256;63810;-58
2023/10/30 01:13:25;;;;;;;11.00;6.40;;;;;;;13.26;56.92;100482.83;104977;1255;59832;-58
2023/10/30 01:15:55;;;;;;;12.50;6.50;;;;;;;13.32;56.79;100478.98;105644;1260;59708;-57
2023/10/30 01:18:22;;;;;;;13.40;6.80;;;;;;;13.38;56.63;100482.73;104799;1258;64155;-58
2023/10/30 01:20:51;;;;;;;15.80;7.50;;;;;;;13.39;56.56;100484.73;104986;1260;60534;-56
2023/10/30 01:23:18;;;;;;;12.70;7.30;;;;;;;13.37;56.62;100482.02;105105;1257;63750;-58
2023/10/30 01:25:47;;;;;;;11.40;7.00;;;;;;;13.36;56.46;100484.15;104999;1261;59606;-60
2023/10/30 01:28:14;;;;;;;9.50;6.40;;;;;;;13.33;56.53;100487.55;105146;1261;59755;-59
2023/10/30 01:30:42;;;;;;;10.50;6.70;;;;;;;13.30;56.58;100481.87;105511;1255;64134;-58
2023/10/30 01:33:10;;;;;;;11.20;6.50;;;;;;;13.28;56.59;100478.12;105177;1254;61556;-57
2023/10/30 01:35:38;;;;;;;12.70;6.70;;;;;;;13.26;56.66;100480.77;105500;1254;63741;-56
2023/10/30 01:38:05;;;;;;;13.50;6.80;;;;;;;13.28;56.57;100478.46;105204;1260;60367;-57
2023/10/30 01:40:33;;;;;;;13.00;6.90;;;;;;;13.31;56.50;100475.73;105160;1257;59784;-61
2023/10/30 01:43:07;;;;;;;11.80;6.20;;;;;;;13.31;56.41;100474.02;105156;1260;64603;-56
2023/10/30 01:45:35;;;;;;;9.70;6.70;;;;;;;13.27;56.42;100471.68;105659;1260;60255;-55
2023/10/30 01:48:02;;;;;;;11.00;6.50;;;;;;;13.24;56.52;100468.92;105147;1257;63682;-57
2023/10/30 01:50:30;;;;;;;12.90;7.20;;;;;;;13.23;56.54;100469.41;105080;1260;62444;-57
2023/10/30 01:52:58;;;;;;;12.90;7.70;;;;;;;13.21;56.56;100469.41;105686;1254;59659;-57
2023/10/30 01:55:25;;;;;;;12.70;6.70;;;;;;;13.18;56.56;100467.36;105221;1269;64081;-58
2023/10/30 01:57:54;;;;;;;11.40;6.30;;;;;;;13.15;56.66;100467.08;105916;1254;61351;-58
2023/10/30 02:00:21;;;;;;;11.10;5.70;;;;;;;13.13;56.65;100464.45;105015;1263;63776;-59
2023/10/30 02:02:50;;;;;;;14.50;6.20;;;;;;;13.16;56.71;100461.70;105251;1258;59644;-57
2023/10/30 02:05:18;;;;;;;15.90;7.10;;;;;;;13.22;56.56;100461.02;105211;1256;59752;-57
2023/10/30 02:07:46;;;;;;;11.60;6.40;;;;;;;13.25;56.46;100459.73;105124;1254;64139;-57
2023/10/30 02:10:13;;;;;;;10.70;6.30;;;;;;;13.24;56.46;100456.07;105164;1255;61998;-57
2023/10/30 02:12:42;;;;;;;13.50;6.70;;;;;;;13.24;56.41;100457.52;105223;1260;62760;-59
2023/10/30 02:15:10;;;;;;;12.90;6.60;;;;;;;13.21;56.50;100456.70;105500;1254;59653;-55
2023/10/30 02:17:38;;;;;;;10.10;6.10;;;;;;;13.18;56.44;100458.02;105146;1255;59795;-58
2023/10/30 02:20:06;;;;;;;11.20;6.50;;;;;;;13.16;56.37;100459.27;105637;1257;64041;-57
2023/10/30 02:22:34;;;;;;;12.20;7.10;;;;;;;13.13;56.52;100456.14;105671;1260;61883;-57
2023/10/30 02:25:04;;;;;;;11.30;6.70;;;;;;;13.10;56.50;100449.77;105716;1260;63691;-58
2023/10/30 02:27:32;;;;;;;14.10;6.40;;;;;;;13.07;56.67;100454.64;105720;1254;59705;-57
2023/10/30 02:29:59;;;;;;;16.10;6.80;;;;;;;13.09;56.62;100458.81;105605;1260;59529;-57
2023/10/30 02:32:27;;;;;;;11.00;6.00;;;;;;;13.14;56.61;100459.57;106348;1262;64118;-57
2023/10/30 02:34:55;;;;;;;13.10;6.70;;;;;;;13.17;56.65;100457.38;105178;1260;68764;-57
2023/10/30 02:37:23;;;;;;;10.70;6.70;;;;;;;13.17;56.66;100458.23;105235;1255;63018;-58
2023/10/30 02:39:51;;;;;;;14.10;7.10;;;;;;;13.17;56.71;100458.66;105202;1254;60933;-56
2023/10/30 02:42:19;;;;;;;11.70;6.20;;;;;;;13.15;56.60;100458.14;105330;1256;59309;-55
2023/10/30 02:44:46;;;;;;;11.50;6.40;;;;;;;13.12;56.70;100460.34;105373;1254;62992;-56
2023/10/30 02:47:14;;;;;;;12.70;6.70;;;;;;;13.07;56.82;100454.77;105337;1257;61380;-55
2023/10/30 02:49:42;;;;;;;11.90;6.60;;;;;;;13.02;56.87;100460.17;105221;1258;63670;-55
2023/10/30 02:52:10;;;;;;;11.00;6.90;;;;;;;12.96;56.96;100456.12;105261;1260;59746;-54
2023/10/30 02:54:37;;;;;;;11.20;6.30;;;;;;;12.91;57.13;100456.38;105225;1260;59756;-58
2023/10/30 02:57:05;;;;;;;11.90;6.10;;;;;;;12.90;57.09;100458.94;105617;1260;64123;-59
2023/10/30 02:59:32;;;;;;;8.70;5.60;;;;;;;12.92;57.17;100461.56;106454;1254;61518;-57
2023/10/30 03:02:00;;;;;;;12.20;6.70;;;;;;;12.94;57.09;100472.02;105228;1266;62488;-56
2023/10/30 03:04:27;;;;;;;11.50;6.30;;;;;;;12.93;57.07;100469.73;105199;1260;59756;-54
2023/10/30 03:06:58;;;;;;;12.40;6.60;;;;;;;12.93;57.09;100467.36;105225;1259;59583;-56
2023/10/30 03:09:26;;;;;;;13.00;6.50;;;;;;;12.92;57.03;100457.20;105213;1257;64157;-56
2023/10/30 03:11:55;;;;;;;13.90;7.00;;;;;;;12.90;56.92;100460.55;105807;1255;61557;-54
2023/10/30 03:14:23;;;;;;;11.30;6.40;;;;;;;12.88;56.99;100458.80;106027;1257;66801;-55
2023/10/30 03:16:51;;;;;;;12.50;6.60;;;;;;;12.85;56.88;100452.30;105362;1260;60847;-55
2023/10/30 03:19:19;;;;;;;12.00;7.20;;;;;;;12.82;56.99;100450.13;105319;1260;59758;-57
2023/10/30 03:21:46;;;;;;;9.60;6.00;;;;;;;12.80;57.07;100451.73;105219;1263;62858;-57
2023/10/30 03:24:15;;;;;;;12.40;5.70;;;;;;;12.83;57.02;100458.66;105186;1259;61348;-55
2023/10/30 03:26:43;;;;;;;11.50;6.10;;;;;;;12.88;56.89;100460.33;105270;1260;63784;-56
2023/10/30 03:29:10;;;;;;;11.40;6.70;;;;;;;12.90;56.91;100451.02;105147;1260;59645;-55
2023/10/30 03:31:39;;;;;;;9.40;5.70;;;;;;;12.90;56.96;100448.77;105614;1257;59702;-56
2023/10/30 03:34:07;;;;;;;11.20;6.10;;;;;;;12.90;57.00;100444.87;105632;1257;64691;-55
2023/10/30 03:36:35;;;;;;;14.10;7.00;;;;;;;12.89;56.84;100444.27;105567;1260;60884;-55
2023/10/30 03:39:04;;;;;;;10.90;6.70;;;;;;;12.87;56.88;100446.01;105308;1255;64172;-57
2023/10/30 03:41:31;;;;;;;10.60;6.50;;;;;;;12.86;56.79;100448.27;105192;1260;60532;-55
2023/10/30 03:43:59;;;;;;;14.20;6.80;;;;;;;12.83;56.86;100447.54;105243;1264;60645;-55
2023/10/30 03:46:27;;;;;;;12.40;6.80;;;;;;;12.82;56.73;100443.77;105701;1259;64947;-54
2023/10/30 03:48:55;;;;;;;11.40;6.50;;;;;;;12.80;56.72;100442.23;105128;1262;61382;-56
2023/10/30 03:51:25;;;;;;;10.90;6.60;;;;;;;12.83;56.77;100444.41;105279;1255;63727;-55
2023/10/30 03:53:53;;;;;;;13.00;6.40;;;;;;;12.89;56.60;100438.80;105842;1258;60427;-56
2023/10/30 03:56:21;;;;;;;11.80;6.60;;;;;;;12.93;56.50;100436.16;105229;1260;60389;-54
2023/10/30 03:58:48;;;;;;;10.00;6.40;;;;;;;12.95;56.54;100442.47;105186;1262;64957;-54
2023/10/30 04:01:16;;;;;;;10.50;6.80;;;;;;;12.97;56.48;100443.53;106125;1254;61903;-56
2023/10/30 04:03:44;;;;;;;14.00;7.00;;;;;;;12.98;56.55;100447.29;105129;1261;63728;-52
2023/10/30 04:06:11;;;;;;;12.30;6.70;;;;;;;12.97;56.38;100451.29;105196;1259;60644;-54
2023/10/30 04:08:39;;;;;;;12.50;7.10;;;;;;;12.95;56.33;100452.70;105432;1259;60387;-55
2023/10/30 04:11:09;;;;;;;12.90;6.80;;;;;;;12.92;56.36;100451.91;105267;1260;64964;-54
2023/10/30 04:13:36;;;;;;;12.00;6.10;;;;;;;12.92;56.34;100452.80;105641;1260;61845;-54
2023/10/30 04:16:05;;;;;;;10.90;6.00;;;;;;;12.91;56.43;100449.91;105267;1259;62531;-55
2023/10/30 04:18:33;;;;;;;10.40;5.70;;;;;;;12.95;56.35;100448.66;105671;1255;60481;-57
2023/10/30 04:21:01;;;;;;;12.30;6.30;;;;;;;13.01;56.24;100448.65;105263;1254;60501;-53
2023/10/30 04:23:30;;;;;;;11.60;7.50;;;;;;;13.05;56.19;100442.14;105706;1257;63669;-55
2023/10/30 04:25:58;;;;;;;11.00;6.20;;;;;;;13.05;56.20;100439.98;105724;1254;61329;-56
2023/10/30 04:28:25;;;;;;;11.40;6.40;;;;;;;13.07;56.11;100441.06;105158;1261;63817;-55
2023/10/30 04:30:53;;;;;;;10.40;6.50;;;;;;;13.08;56.11;100441.88;105360;1267;60478;-55
2023/10/30 04:33:20;;;;;;;12.40;6.40;;;;;;;13.09;56.02;100440.01;105265;1260;60574;-56
2023/10/30 04:35:48;;;;;;;13.60;6.70;;;;;;;13.07;55.93;100442.84;105316;1260;64895;-55
2023/10/30 04:38:16;;;;;;;10.70;5.90;;;;;;;13.05;55.97;100439.81;105309;1254;61246;-55
2023/10/30 04:40:43;;;;;;;10.90;6.40;;;;;;;13.03;56.07;100442.11;105289;1260;64329;-55
2023/10/30 04:43:11;;;;;;;12.30;6.80;;;;;;;13.00;56.14;100438.46;105254;1255;60552;-55
2023/10/30 04:45:39;;;;;;;9.10;6.10;;;;;;;13.04;56.13;100435.00;105177;1255;60517;-55
2023/10/30 04:48:06;;;;;;;9.10;6.10;;;;;;;13.10;56.12;100431.45;105152;1255;64981;-56
2023/10/30 04:50:34;;;;;;;10.80;6.30;;;;;;;13.13;56.14;100430.34;106365;1255;61370;-56
2023/10/30 04:53:02;;;;;;;11.50;6.40;;;;;;;13.13;56.06;100428.39;105134;1260;62416;-56
2023/10/30 04:55:34;;;;;;;11.00;6.60;;;;;;;13.11;56.07;100428.17;105667;1260;60577;-54
2023/10/30 04:58:02;;;;;;;9.60;6.00;;;;;;;13.10;56.12;100424.61;105571;1258;60434;-55
2023/10/30 05:00:29;;;;;;;11.10;6.10;;;;;;;13.06;56.14;100422.66;105296;1261;63685;-54
2023/10/30 05:02:57;;;;;;;11.60;6.90;;;;;;;13.02;56.27;100419.14;105743;1254;72395;-48
2023/10/30 05:05:26;;;;;;;11.10;6.70;;;;;;;12.99;56.26;100420.63;105100;1259;62580;-52
2023/10/30 05:07:55;;;;;;;11.30;6.30;;;;;;;12.97;56.32;100420.27;105050;1254;60407;-55
2023/10/30 05:10:22;;;;;;;11.10;6.50;;;;;;;12.95;56.38;100421.00;105238;1257;60542;-55
2023/10/30 05:12:50;;;;;;;11.50;6.10;;;;;;;12.93;56.51;100423.11;105112;1254;64995;-55
2023/10/30 05:15:17;;;;;;;12.20;6.60;;;;;;;12.96;56.48;100422.48;105110;1269;60402;-55
2023/10/30 05:17:45;;;;;;;9.90;5.90;;;;;;;13.02;56.43;100422.65;105210;1260;63760;-59
2023/10/30 05:20:15;;;;;;;12.20;5.50;;;;;;;13.05;56.37;100418.80;106225;1260;60523;-57
2023/10/30 05:22:43;;;;;;;10.10;5.90;;;;;;;13.07;56.10;100418.47;105920;1257;61180;-56
2023/10/30 05:25:14;;;;;;;10.30;5.80;;;;;;;13.09;56.12;100418.65;105181;1258;76343;-56
2023/10/30 05:27:45;;;;;;;11.80;5.80;;;;;;;13.12;55.98;100417.48;106456;1257;62301;-57
2023/10/30 05:30:13;;;;;;;11.30;6.60;;;;;;;13.14;55.96;100419.83;106997;1256;63736;-57
2023/10/30 05:32:41;;;;;;;16.50;6.40;;;;;;;13.15;55.77;100422.41;105206;1251;60516;-57
2023/10/30 05:35:09;;;;;;;13.20;6.20;;;;;;;13.15;55.66;100419.38;105385;1256;60371;-57
2023/10/30 05:37:36;;;;;;;9.80;5.90;;;;;;;13.16;55.85;100421.21;105390;1253;63740;-56
2023/10/30 05:40:07;;;;;;;8.90;5.80;;;;;;;13.17;55.89;100423.56;105269;1257;61386;-55
2023/10/30 05:42:38;;;;;;;8.00;5.10;;;;;;;13.19;55.88;100428.48;105202;1257;63724;-55
2023/10/30 05:45:06;;;;;;;11.00;5.60;;;;;;;13.26;55.66;100424.19;105401;1254;60489;-55
2023/10/30 05:47:36;;;;;;;15.30;5.70;;;;;;;13.36;55.58;100424.20;109301;1251;58358;-55
2023/10/30 05:50:05;;;;;;;11.20;5.90;;;;;;;13.45;55.51;100425.14;109283;1254;67308;-59
2023/10/30 05:52:34;;;;;;;11.90;5.80;;;;;;;13.51;55.31;100430.75;109151;1254;60156;-58
2023/10/30 05:55:03;;;;;;;10.50;5.60;;;;;;;13.56;55.07;100435.06;105564;1251;72923;-57
2023/10/30 05:57:33;;;;;;;10.20;5.50;;;;;;;13.62;54.91;100441.23;109286;1253;58502;-56
2023/10/30 06:00:01;;;;;;;8.30;5.40;;;;;;;13.69;54.86;100440.38;109273;1254;58397;-56
2023/10/30 06:02:30;;;;;;;9.50;4.90;;;;;;;13.76;54.71;100443.83;105882;1254;65972;-56
2023/10/30 06:04:59;;;;;;;10.00;5.60;;;;;;;13.82;54.59;100442.79;105449;1256;60581;-56
2023/10/30 06:07:28;;;;;;;10.80;5.50;;;;;;;13.85;54.43;100440.38;105419;1254;65936;-56
2023/10/30 06:09:57;;;;;;;11.20;5.20;;;;;;;13.87;54.30;100438.06;105491;1251;60579;-56
2023/10/30 06:12:25;;;;;;;10.90;4.80;;;;;;;13.88;54.14;100439.51;106072;1251;60603;-56
2023/10/30 06:14:55;;;;;;;9.70;5.10;;;;;;;13.89;54.09;100440.11;107625;1254;67531;-54
2023/10/30 06:17:23;;;;;;;9.30;5.50;;;;;;;13.90;54.07;100437.02;105540;1256;61394;-52
2023/10/30 06:19:52;;;;;;;9.60;5.40;;;;;;;13.91;54.08;100436.98;106063;1256;64871;-54
2023/10/30 06:22:21;;;;;;;10.90;5.50;;;;;;;13.92;54.14;100443.14;105370;1253;60558;-51
2023/10/30 06:24:49;;;;;;;9.60;5.40;;;;;;;13.97;54.15;100445.22;105598;1254;60437;-53
2023/10/30 06:27:17;;;;;;;8.90;5.00;;;;;;;14.05;53.90;100446.39;105517;1251;63720;-54
2023/10/30 06:29:45;;;;;;;10.70;4.90;;;;;;;14.16;53.71;100444.30;105538;1257;60391;-52
2023/10/30 06:32:12;;;;;;;10.60;5.10;;;;;;;14.24;53.53;100440.91;105492;1254;62529;-52
2023/10/30 06:34:42;;;;;;;10.50;5.20;;;;;;;14.30;53.47;100439.98;105581;1251;60547;-52
2023/10/30 06:37:10;;;;;;;10.40;5.10;;;;;;;14.36;53.32;100441.39;105326;1251;60552;-52
2023/10/30 06:39:40;;;;;;;9.40;4.70;;;;;;;14.42;53.58;100445.60;105673;1255;65400;-54
2023/10/30 06:42:09;;;;;;;10.10;5.10;;;;;;;14.48;53.46;100443.09;105664;1257;62457;-53
2023/10/30 06:44:36;;;;;;;9.00;4.80;;;;;;;14.53;53.26;100440.00;105383;1257;63769;-56
2023/10/30 06:47:05;;;;;;;10.20;5.20;;;;;;;14.56;53.04;100439.66;105436;1256;60459;-55
2023/10/30 06:49:33;;;;;;;9.00;5.00;;;;;;;14.60;53.29;100433.80;105841;1251;60500;-57
2023/10/30 06:52:06;;;;;;;11.50;5.10;;;;;;;14.67;53.21;100430.52;106762;1257;65411;-62
2023/10/30 06:54:34;;;;;;;12.40;5.80;;;;;;;14.73;53.12;100427.48;105904;1254;61877;-61
2023/10/30 06:57:02;;;;;;;8.20;4.70;;;;;;;14.80;53.06;100430.02;105439;1254;63763;-56
2023/10/30 06:59:29;;;;;;;10.50;5.00;;;;;;;14.86;52.87;100427.06;105295;1254;60510;-59
2023/10/30 07:01:57;;;;;;;9.30;5.10;;;;;;;14.93;52.66;100428.00;106029;1254;60607;-57
2023/10/30 07:04:24;;;;;;;12.50;5.80;;;;;;;14.99;52.57;100423.36;105316;1264;64986;-55
2023/10/30 07:06:52;;;;;;;10.10;5.00;;;;;;;15.07;52.74;100424.55;105352;1256;60492;-58
2023/10/30 07:09:20;;;;;;;8.70;5.20;;;;;;;15.16;52.37;100428.98;105411;1255;71412;-54
2023/10/30 07:11:47;;;;;;;10.20;4.60;;;;;;;15.24;52.17;100432.42;108679;1254;60578;-54
2023/10/30 07:14:15;;;;;;;8.80;4.90;;;;;;;15.32;52.09;100432.33;105508;1257;60360;-55
2023/10/30 07:16:46;;;;;;;7.70;4.40;;;;;;;15.42;51.90;100424.84;105698;1254;65000;-53
2023/10/30 07:19:31;;;;;;;8.20;4.30;;;;;;;15.52;51.35;100421.53;105473;1255;62925;-52
2023/10/30 07:21:59;;;;;;;9.10;4.50;;;;;;;15.61;51.37;100418.67;109131;1254;63761;-62
2023/10/30 07:24:26;;;;;;;8.90;5.10;;;;;;;15.69;50.94;100417.14;105046;1254;60838;-58
2023/10/30 07:26:57;;;;;;;13.10;4.90;;;;;;;15.78;50.94;100422.05;105229;1257;60421;-54
2023/10/30 07:29:25;;;;;;;8.70;4.70;;;;;;;15.88;50.77;100416.11;109338;1254;63722;-51
2023/10/30 07:31:52;;;;;;;9.10;4.80;;;;;;;15.96;50.39;100415.09;108612;1251;61650;-56
2023/10/30 07:34:21;;;;;;;9.00;4.60;;;;;;;16.03;50.23;100421.83;105248;1254;63743;-56
2023/10/30 07:36:49;;;;;;;8.30;4.80;;;;;;;16.09;50.03;100424.58;109317;1254;58494;-57
2023/10/30 07:39:17;;;;;;;10.90;4.80;;;;;;;16.13;49.89;100422.08;109344;1251;58536;-56
2023/10/30 07:41:44;;;;;;;7.80;4.50;;;;;;;16.15;49.78;100429.56;105694;1254;63674;-56
2023/10/30 07:44:12;;;;;;;8.90;4.30;;;;;;;16.18;49.67;100429.30;109348;1251;61397;-57
2023/10/30 07:46:40;;;;;;;9.90;4.50;;;;;;;16.20;49.60;100430.35;107245;1253;62469;-58
2023/10/30 07:49:07;;;;;;;7.70;4.50;;;;;;;16.24;49.84;100431.23;105579;1255;60529;-56
2023/10/30 07:51:36;;;;;;;9.50;4.50;;;;;;;16.28;49.78;100432.07;105845;1251;60457;-57
2023/10/30 07:54:04;;;;;;;7.70;4.30;;;;;;;16.31;49.48;100432.13;105378;1251;65575;-56
2023/10/30 07:56:32;;;;;;;8.80;4.60;;;;;;;16.33;49.42;100428.86;105903;1254;69904;-56
2023/10/30 07:59:00;;;;;;;9.30;4.90;;;;;;;16.36;49.55;100426.27;105885;1256;62537;-56
2023/10/30 08:01:28;;;;;;;9.30;4.20;;;;;;;16.39;49.60;100423.62;106901;1252;60625;-57
2023/10/30 08:03:56;;;;;;;8.20;4.00;;;;;;;16.43;49.71;100421.92;105514;1251;60366;-57
2023/10/30 08:06:25;;;;;;;10.20;4.80;;;;;;;16.48;49.62;100425.13;106017;1254;64990;-56
2023/10/30 08:08:53;;;;;;;10.50;4.70;;;;;;;16.52;49.54;100427.40;106864;1254;60447;-55
2023/10/30 08:11:20;;;;;;;9.30;4.40;;;;;;;16.56;49.59;100429.10;105541;1252;62507;-56
2023/10/30 08:13:48;;;;;;;8.40;4.20;;;;;;;16.61;49.37;100427.77;105445;1257;60910;-54
2023/10/30 08:16:16;;;;;;;9.60;4.40;;;;;;;16.65;49.34;100426.98;105465;1251;60526;-60
2023/10/30 08:18:43;;;;;;;9.70;3.90;;;;;;;16.70;49.43;100424.77;105329;1251;63775;-56
2023/10/30 08:21:11;;;;;;;9.40;4.20;;;;;;;16.77;49.38;100420.34;105395;1252;61346;-56
2023/10/30 08:23:39;;;;;;;8.90;4.30;;;;;;;16.81;49.14;100422.41;105403;1257;62480;-59
2023/10/30 08:26:06;;;;;;;12.10;4.50;;;;;;;16.85;48.91;100428.05;105375;1257;61894;-58
2023/10/30 08:28:35;;;;;;;9.50;4.60;;;;;;;16.89;48.64;100428.83;105864;1256;60524;-58
2023/10/30 08:31:04;;;;;;;9.20;5.30;;;;;;;16.93;48.53;100424.73;105938;1251;63706;-58
2023/10/30 08:33:32;;;;;;;11.70;4.20;;;;;;;16.97;48.47;100427.34;106027;1256;60523;-57
2023/10/30 08:36:00;;;;;;;7.60;4.60;;;;;;;17.01;48.40;100428.72;105969;1256;62509;-59
2023/10/30 08:38:27;;;;;;;8.10;4.00;;;;;;;17.03;48.38;100424.73;105431;1251;60424;-57
2023/10/30 08:40:55;;;;;;;11.10;4.50;;;;;;;17.05;48.40;100420.08;109304;1251;58553;-58
2023/10/30 08:43:23;;;;;;;10.40;4.40;;;;;;;17.07;48.43;100424.27;108640;1253;65012;-58
2023/10/30 08:45:50;;;;;;;12.00;4.90;;;;;;;17.10;48.37;100425.91;105416;1256;61892;-55
2023/10/30 08:48:18;;;;;;;9.10;3.90;;;;;;;17.14;48.33;100426.08;105484;1256;62426;-54
2023/10/30 08:50:46;;;;;;;8.60;4.30;;;;;;;17.18;48.32;100427.02;105482;1251;59035;-56
2023/10/30 08:53:15;;;;;;;11.00;4.10;;;;;;;17.20;47.98;100425.52;105673;1252;60373;-58
2023/10/30 08:55:43;;;;;;;8.60;4.40;;;;;;;17.21;48.02;100427.61;105641;1251;65154;-57
2023/10/30 08:58:11;;;;;;;10.40;4.40;;;;;;;17.21;48.20;100422.22;106456;1254;60466;-54
2023/10/30 09:00:38;;;;;;;10.60;4.10;;;;;;;17.24;48.37;100419.67;105494;1251;63792;-54
2023/10/30 09:03:06;;;;;;;8.30;4.30;;;;;;;17.28;48.35;100415.88;105533;1254;60693;-54
2023/10/30 09:05:34;;;;;;;9.10;4.20;;;;;;;17.31;48.45;100418.58;105325;1251;60319;-57
2023/10/30 09:08:03;;;;;;;9.30;4.70;;;;;;;17.34;48.43;100417.31;105889;1251;63721;-54
2023/10/30 09:10:32;;;;;;;9.30;4.40;;;;;;;17.38;48.39;100418.32;108373;1254;60549;-56
2023/10/30 09:13:00;;;;;;;8.60;4.40;;;;;;;17.44;48.50;100417.48;105442;1256;63728;-56
2023/10/30 09:15:27;;;;;;;7.80;4.50;;;;;;;17.49;48.43;100418.55;105575;1250;60884;-54
2023/10/30 09:17:55;;;;;;;9.30;5.10;;;;;;;17.54;48.30;100417.18;105945;1251;60342;-54
2023/10/30 09:20:23;;;;;;;8.00;4.30;;;;;;;17.59;48.29;100416.77;105443;1256;63702;-56
2023/10/30 09:22:51;;;;;;;9.00;4.50;;;;;;;17.66;48.32;100409.15;105446;1255;61083;-57
2023/10/30 09:25:18;;;;;;;10.40;5.30;;;;;;;17.74;48.04;100408.11;105419;1257;64908;-56
2023/10/30 09:27:48;;;;;;;9.90;4.70;;;;;;;17.81;48.11;100404.89;106109;1253;60533;-57
2023/10/30 09:30:16;;;;;;;9.70;5.10;;;;;;;17.90;47.76;100405.56;105406;1251;60411;-58
2023/10/30 09:32:44;;;;;;;10.20;4.50;;;;;;;17.96;47.51;100402.23;105476;1256;65090;-57
2023/10/30 09:35:12;;;;;;;9.30;5.40;;;;;;;18.01;47.53;100401.02;107709;1251;62482;-59
2023/10/30 09:37:41;;;;;;;9.40;4.90;;;;;;;18.06;47.29;100398.84;105502;1254;63756;-55
2023/10/30 09:40:09;;;;;;;10.20;5.80;;;;;;;18.09;47.24;100397.06;105691;1254;60552;-51
2023/10/30 09:42:37;;;;;;;8.30;5.20;;;;;;;18.12;47.24;100395.73;106033;1251;60552;-52
2023/10/30 09:45:06;;;;;;;7.90;4.90;;;;;;;18.15;47.46;100394.61;105528;1251;65109;-52
2023/10/30 09:47:34;;;;;;;11.00;4.90;;;;;;;18.21;47.09;100396.09;106065;1254;61564;-52
2023/10/30 09:50:02;;;;;;;9.00;4.40;;;;;;;18.29;47.39;100389.94;105324;1254;66031;-58
2023/10/30 09:52:30;;;;;;;12.30;5.30;;;;;;;18.42;47.40;100390.44;106579;1251;60532;-56
2023/10/30 09:54:59;;;;;;;9.00;4.50;;;;;;;18.55;47.31;100384.67;105727;1256;60593;-52
2023/10/30 09:57:27;;;;;;;10.30;4.40;;;;;;;18.66;46.75;100379.52;108441;1253;65560;-56
2023/10/30 09:59:56;;;;;;;8.20;4.30;;;;;;;18.76;46.68;100379.56;106127;1251;61367;-55
2023/10/30 10:02:24;;;;;;;7.80;4.30;;;;;;;18.86;46.71;100378.42;106217;1254;64864;-56
2023/10/30 10:04:52;;;;;;;13.30;4.20;;;;;;;18.96;46.35;100371.64;105613;1256;60572;-51
2023/10/30 10:07:19;;;;;;;9.30;4.80;;;;;;;19.04;46.10;100368.73;105405;1254;60504;-57
2023/10/30 10:09:58;;;;;;;9.70;4.30;;;;;;;19.11;46.10;100370.61;105427;1251;63748;-56
2023/10/30 10:12:26;;;;;;;9.10;4.60;;;;;;;19.18;46.03;100369.85;106070;1251;61523;-55
2023/10/30 10:14:54;;;;;;;8.90;3.80;;;;;;;19.24;45.67;100365.66;106064;1251;63837;-55
2023/10/30 10:17:22;;;;;;;9.70;4.50;;;;;;;19.30;45.73;100362.71;105941;1254;60926;-59
2023/10/30 10:19:50;;;;;;;7.20;3.60;;;;;;;19.37;45.63;100361.44;106841;1256;58955;-56
2023/10/30 10:22:27;;;;;;;9.60;4.00;;;;;;;19.43;45.50;100358.20;109375;1253;63767;-59
2023/10/30 10:24:59;;;;;;;8.80;4.30;;;;;;;19.51;45.61;100352.37;107536;1254;60387;-60
2023/10/30 10:27:27;;;;;;;8.60;3.90;;;;;;;19.61;45.29;100348.04;109367;1251;62541;-58
2023/10/30 10:29:56;;;;;;;8.60;4.10;;;;;;;19.73;45.21;100342.89;109310;1251;58157;-57
2023/10/30 10:32:27;;;;;;;6.70;3.40;;;;;;;19.86;45.20;100339.36;106778;1253;60453;-56
2023/10/30 10:35:02;;;;;;;7.80;3.40;;;;;;;19.99;44.94;100338.13;105139;1252;65010;-57
2023/10/30 10:37:30;;;;;;;10.90;4.00;;;;;;;20.13;45.08;100339.62;105329;1256;60441;-58
2023/10/30 10:39:58;;;;;;;6.50;3.60;;;;;;;20.26;44.59;100335.76;109343;1251;63749;-58
2023/10/30 10:42:29;;;;;;;7.70;3.50;;;;;;;20.36;44.23;100334.09;108482;1250;60464;-60
2023/10/30 10:44:58;;;;;;;6.30;3.50;;;;;;;20.42;43.71;100330.59;105366;1257;60633;-58
2023/10/30 10:47:25;;;;;;;8.50;3.80;;;;;;;20.48;43.09;100329.50;105466;1251;65478;-59
2023/10/30 10:49:53;;;;;;;7.50;3.30;;;;;;;20.55;42.87;100322.65;106108;1253;62637;-59
2023/10/30 10:52:21;;;;;;;7.30;3.50;;;;;;;20.62;42.81;100320.49;105419;1257;62595;-58
2023/10/30 10:54:57;;;;;;;8.50;3.10;;;;;;;20.71;41.89;100323.79;105306;1256;60505;-59
2023/10/30 10:57:25;;;;;;;6.40;2.80;;;;;;;20.79;41.80;100322.55;106178;1251;60462;-59
2023/10/30 11:00:00;;;;;;;9.30;3.40;;;;;;;20.86;42.03;100322.05;105373;1251;65066;-56
2023/10/30 11:02:31;;;;;;;10.10;4.20;;;;;;;20.92;42.01;100323.18;106025;1256;62004;-58
2023/10/30 11:04:59;;;;;;;10.50;3.90;;;;;;;21.00;42.09;100317.94;106705;1255;73262;-58
2023/10/30 11:07:49;;;;;;;7.50;3.10;;;;;;;21.08;41.90;100313.63;107627;1252;60428;-60
2023/10/30 11:10:22;;;;;;;7.30;3.70;;;;;;;21.17;41.97;100312.88;105523;1256;59718;-60
2023/10/30 11:13:05;;;;;;;6.20;3.30;;;;;;;21.25;41.71;100309.48;107658;1251;63728;-59
2023/10/30 11:15:35;;;;;;;7.20;3.50;;;;;;;21.35;41.43;100306.50;105610;1254;60431;-56
2023/10/30 11:18:14;;;;;;;7.10;2.70;;;;;;;21.44;41.31;100296.44;105857;1256;62513;-52